createdAt,value
2022-10-18T00:01:06.290Z,7.53
2022-10-18T00:03:34.979Z,7.45
2022-10-18T00:06:02.987Z,7.39
2022-10-18T00:08:30.625Z,7.45
2022-10-18T00:10:58.352Z,7.41
2022-10-18T00:13:26.640Z,7.33
2022-10-18T00:16:00.652Z,7.24
2022-10-18T00:18:29.339Z,7.16
2022-10-18T00:21:03.126Z,7.08
2022-10-18T00:23:32.397Z,6.98
2022-10-18T00:26:06.179Z,6.91
2022-10-18T00:28:35.745Z,6.84
2022-10-18T00:31:19.548Z,6.73
2022-10-18T00:33:51.312Z,6.64
2022-10-18T00:36:19.586Z,6.64
2022-10-18T00:38:48.174Z,6.50
2022-10-18T00:41:20.306Z,6.57
2022-10-18T00:44:04.739Z,6.66
2022-10-18T00:46:35.982Z,6.82
2022-10-18T00:49:28.782Z,6.92
2022-10-18T00:51:57.854Z,6.91
2022-10-18T00:54:28.406Z,6.92
2022-10-18T00:56:56.194Z,6.93
2022-10-18T00:59:24.767Z,6.93
2022-10-18T01:01:52.538Z,6.98
2022-10-18T01:04:22.103Z,7.05
2022-10-18T01:07:26.478Z,7.19
2022-10-18T01:10:26.895Z,7.26
2022-10-18T01:13:14.554Z,7.07
2022-10-18T01:16:04.818Z,7.10
2022-10-18T01:19:01.291Z,7.26
2022-10-18T01:22:08.643Z,7.19
2022-10-18T01:24:57.424Z,7.20
2022-10-18T01:28:12.543Z,7.29
2022-10-18T01:30:47.700Z,7.26
2022-10-18T01:33:45.871Z,7.13
2022-10-18T01:36:31.590Z,7.12
2022-10-18T01:39:06.288Z,7.05
2022-10-18T01:41:39.811Z,7.07
2022-10-18T01:44:15.180Z,7.09
2022-10-18T01:46:44.824Z,7.10
2022-10-18T01:49:12.459Z,7.10
2022-10-18T01:51:39.976Z,7.06
2022-10-18T01:54:07.668Z,7.07
2022-10-18T01:56:46.459Z,6.91
2022-10-18T01:59:16.529Z,6.57
2022-10-18T02:02:07.943Z,6.29
2022-10-18T02:04:59.077Z,6.17
2022-10-18T02:08:05.621Z,6.04
2022-10-18T02:10:48.538Z,6.00
2022-10-18T02:13:20.653Z,5.92
2022-10-18T02:15:55.147Z,5.84
2022-10-18T02:18:36.520Z,5.91
2022-10-18T02:21:08.382Z,6.03
2022-10-18T02:23:38.052Z,5.98
2022-10-18T02:26:06.784Z,5.89
2022-10-18T02:28:34.664Z,5.86
2022-10-18T02:31:26.249Z,6.00
2022-10-18T02:34:00.406Z,6.07
2022-10-18T02:36:59.522Z,6.06
2022-10-18T02:39:36.354Z,6.07
2022-10-18T02:42:06.705Z,6.07
2022-10-18T02:44:35.858Z,6.19
2022-10-18T02:47:05.663Z,6.21
2022-10-18T02:49:33.124Z,6.19
2022-10-18T02:52:00.687Z,5.94
2022-10-18T02:54:28.275Z,5.75
2022-10-18T02:56:55.791Z,5.62
2022-10-18T02:59:23.231Z,5.57
2022-10-18T03:01:50.705Z,5.49
2022-10-18T03:04:18.318Z,5.47
2022-10-18T03:06:45.875Z,5.49
2022-10-18T03:09:13.399Z,5.53
2022-10-18T03:11:40.811Z,5.66
2022-10-18T03:14:08.259Z,5.97
2022-10-18T03:16:35.743Z,6.14
2022-10-18T03:19:03.614Z,6.44
2022-10-18T03:21:31.150Z,6.76
2022-10-18T03:23:59.726Z,6.87
2022-10-18T03:26:27.017Z,6.78
2022-10-18T03:28:54.658Z,6.60
2022-10-18T03:31:22.222Z,6.37
2022-10-18T03:33:49.834Z,6.00
2022-10-18T03:36:17.586Z,5.81
2022-10-18T03:38:45.013Z,5.61
2022-10-18T03:41:12.520Z,5.54
2022-10-18T03:43:39.951Z,5.41
2022-10-18T03:46:07.823Z,5.44
2022-10-18T03:48:35.264Z,5.36
2022-10-18T03:51:02.875Z,5.34
2022-10-18T03:53:30.460Z,5.30
2022-10-18T03:55:57.895Z,5.24
2022-10-18T03:58:25.549Z,5.14
2022-10-18T04:00:55.287Z,5.10
2022-10-18T04:03:23.520Z,5.09
2022-10-18T04:05:51.293Z,5.09
2022-10-18T04:08:19.315Z,5.01
2022-10-18T04:10:47.023Z,5.16
2022-10-18T04:13:14.546Z,5.27
2022-10-18T04:15:43.123Z,5.29
2022-10-18T04:18:10.554Z,5.16
2022-10-18T04:20:38.025Z,5.16
2022-10-18T04:23:05.484Z,5.18
2022-10-18T04:25:33.007Z,5.16
2022-10-18T04:28:00.627Z,5.36
2022-10-18T04:30:28.046Z,5.71
2022-10-18T04:32:55.519Z,5.86
2022-10-18T04:35:25.868Z,5.57
2022-10-18T04:37:53.354Z,5.41
2022-10-18T04:40:21.582Z,5.26
2022-10-18T04:42:49.088Z,5.21
2022-10-18T04:45:16.535Z,5.32
2022-10-18T04:47:44.067Z,5.64
2022-10-18T04:50:11.535Z,5.41
2022-10-18T04:52:39.057Z,5.21
2022-10-18T04:55:07.242Z,5.16
2022-10-18T04:57:34.953Z,5.36
2022-10-18T05:00:03.103Z,5.68
2022-10-18T05:02:31.174Z,5.93
2022-10-18T05:04:59.036Z,6.07
2022-10-18T05:07:26.495Z,6.26
2022-10-18T05:09:54.050Z,6.32
2022-10-18T05:12:22.340Z,6.54
2022-10-18T05:14:49.831Z,6.55
2022-10-18T05:17:17.319Z,6.69
2022-10-18T05:19:44.732Z,6.83
2022-10-18T05:22:12.302Z,7.02
2022-10-18T05:24:39.930Z,7.17
2022-10-18T05:27:07.522Z,7.38
2022-10-18T05:29:34.996Z,7.51
2022-10-18T05:32:02.408Z,7.70
2022-10-18T05:34:32.023Z,7.71
2022-10-18T05:37:00.673Z,8.00
2022-10-18T05:39:28.163Z,8.23
2022-10-18T05:41:55.674Z,8.43
2022-10-18T05:44:23.160Z,8.44
2022-10-18T05:46:50.669Z,8.85
2022-10-18T05:49:18.262Z,10.30
2022-10-18T05:51:45.795Z,11.07
2022-10-18T05:54:14.272Z,11.14
2022-10-18T05:56:42.262Z,10.93
2022-10-18T05:59:12.605Z,10.68
2022-10-18T06:01:42.694Z,10.62
2022-10-18T06:04:10.577Z,10.90
2022-10-18T06:06:39.597Z,12.75
2022-10-18T06:09:08.603Z,14.40
2022-10-18T06:11:37.333Z,14.38
2022-10-18T06:14:05.583Z,15.95
2022-10-18T06:16:33.118Z,15.93
2022-10-18T06:19:00.670Z,15.37
2022-10-18T06:21:28.327Z,15.27
2022-10-18T06:23:59.045Z,14.92
2022-10-18T06:26:27.982Z,16.04
2022-10-18T06:28:55.498Z,17.29
2022-10-18T06:31:23.299Z,18.64
2022-10-18T06:33:50.824Z,17.84
2022-10-18T06:36:24.042Z,19.76
2022-10-18T06:38:52.037Z,20.16
2022-10-18T06:41:20.442Z,22.11
2022-10-18T06:43:57.482Z,22.16
2022-10-18T06:46:26.025Z,21.71
2022-10-18T06:48:53.543Z,20.13
2022-10-18T06:51:21.208Z,20.98
2022-10-18T06:53:59.622Z,22.73
2022-10-18T06:56:37.272Z,24.29
2022-10-18T06:59:05.125Z,24.53
2022-10-18T07:01:32.830Z,23.59
2022-10-18T07:04:00.370Z,22.87
2022-10-18T07:06:28.013Z,23.96
2022-10-18T07:08:56.171Z,25.26
2022-10-18T07:11:27.021Z,27.97
2022-10-18T07:14:02.982Z,25.23
2022-10-18T07:16:32.510Z,28.43
2022-10-18T07:18:59.992Z,25.09
2022-10-18T07:21:27.671Z,23.71
2022-10-18T07:23:56.044Z,24.11
2022-10-18T07:26:30.835Z,23.57
2022-10-18T07:29:05.118Z,23.66
2022-10-18T07:31:33.399Z,25.03
2022-10-18T07:34:01.155Z,25.39
2022-10-18T07:36:28.594Z,30.48
2022-10-18T07:38:56.316Z,28.95
2022-10-18T07:41:23.995Z,24.28
2022-10-18T07:43:53.660Z,23.92
2022-10-18T07:46:23.014Z,25.00
2022-10-18T07:48:51.499Z,25.41
2022-10-18T07:51:21.001Z,26.64
2022-10-18T07:53:48.559Z,26.48
2022-10-18T07:56:21.145Z,25.66
2022-10-18T07:58:53.173Z,27.20
2022-10-18T08:01:22.961Z,26.30
2022-10-18T08:03:51.518Z,27.34
2022-10-18T08:06:21.574Z,29.26
2022-10-18T08:08:49.378Z,28.18
2022-10-18T08:11:23.823Z,31.23
2022-10-18T08:13:53.473Z,29.39
2022-10-18T08:16:24.839Z,29.85
2022-10-18T08:18:52.750Z,30.65
2022-10-18T08:21:21.896Z,28.44
2022-10-18T08:23:49.883Z,29.80
2022-10-18T08:26:20.859Z,30.56
2022-10-18T08:28:58.184Z,34.72
2022-10-18T08:31:37.185Z,30.93
2022-10-18T08:34:04.651Z,28.93
2022-10-18T08:36:32.236Z,27.36
2022-10-18T08:38:59.786Z,29.67
2022-10-18T08:41:39.404Z,29.14
2022-10-18T08:44:27.255Z,28.98
2022-10-18T08:47:11.125Z,30.43
2022-10-18T08:50:06.643Z,29.17
2022-10-18T08:52:55.241Z,32.65
2022-10-18T08:55:59.917Z,30.85
2022-10-18T08:58:33.323Z,31.52
2022-10-18T09:01:57.155Z,33.70
2022-10-18T09:04:49.423Z,32.79
2022-10-18T09:07:42.303Z,33.96
2022-10-18T09:10:27.186Z,34.94
2022-10-18T09:13:46.977Z,31.41
2022-10-18T09:16:37.376Z,33.00
2022-10-18T09:19:55.897Z,30.92
2022-10-18T09:22:50.094Z,30.00
2022-10-18T09:25:23.457Z,33.47
2022-10-18T09:28:33.474Z,30.81
2022-10-18T09:31:26.162Z,31.97
2022-10-18T09:34:10.863Z,29.64
2022-10-18T09:36:39.871Z,33.43
2022-10-18T09:39:18.880Z,34.38
2022-10-18T09:41:59.063Z,36.20
2022-10-18T09:44:39.264Z,32.81
2022-10-18T09:47:48.494Z,34.71
2022-10-18T09:50:31.734Z,32.29
2022-10-18T09:53:18.043Z,35.31
2022-10-18T09:56:07.479Z,38.27
2022-10-18T09:58:46.887Z,39.56
2022-10-18T10:01:25.650Z,36.73
2022-10-18T10:03:53.603Z,36.62
2022-10-18T10:06:29.518Z,37.10
2022-10-18T10:09:15.654Z,38.20
2022-10-18T10:11:50.742Z,36.55
2022-10-18T10:14:30.186Z,37.67
2022-10-18T10:17:07.053Z,35.41
2022-10-18T10:19:54.663Z,37.86
2022-10-18T10:22:36.872Z,37.45
2022-10-18T10:25:06.679Z,37.13
2022-10-18T10:27:47.471Z,34.83
2022-10-18T10:30:32.109Z,33.55
2022-10-18T10:32:59.755Z,33.38
2022-10-18T10:35:54.348Z,33.44
2022-10-18T10:38:28.724Z,37.32
2022-10-18T10:40:57.372Z,37.69
2022-10-18T10:43:37.708Z,33.43
2022-10-18T10:46:15.550Z,31.72
2022-10-18T10:49:21.757Z,32.16
2022-10-18T10:51:50.636Z,31.42
2022-10-18T10:54:27.567Z,33.60
2022-10-18T10:57:20.007Z,32.89
2022-10-18T10:59:59.695Z,31.68
2022-10-18T11:02:34.897Z,31.51
2022-10-18T11:05:29.184Z,33.30
2022-10-18T11:08:05.141Z,31.47
2022-10-18T11:10:43.032Z,32.16
2022-10-18T11:13:39.313Z,32.96
2022-10-18T11:16:22.548Z,33.30
2022-10-18T11:18:53.827Z,33.20
2022-10-18T11:21:29.211Z,32.89
2022-10-18T11:23:59.624Z,31.86
2022-10-18T11:26:58.395Z,30.86
2022-10-18T11:29:56.859Z,33.76
2022-10-18T11:32:46.174Z,33.26
2022-10-18T11:35:46.602Z,31.61
2022-10-18T11:39:13.514Z,32.28
2022-10-18T11:42:17.640Z,31.97
2022-10-18T11:45:08.294Z,32.40
2022-10-18T11:47:52.180Z,30.04
2022-10-18T11:50:30.097Z,29.15
2022-10-18T11:53:07.108Z,28.21
2022-10-18T11:56:20.836Z,28.74
2022-10-18T11:59:33.597Z,28.96
2022-10-18T12:02:51.148Z,26.19
2022-10-18T12:05:24.330Z,25.89
2022-10-18T12:08:42.347Z,25.08
2022-10-18T12:11:27.124Z,24.75
2022-10-18T12:14:13.966Z,25.20
2022-10-18T12:16:51.487Z,24.12
2022-10-18T12:19:29.322Z,23.98
2022-10-18T12:22:02.878Z,23.69
2022-10-18T12:24:31.996Z,23.51
2022-10-18T12:27:02.401Z,23.32
2022-10-18T12:29:50.798Z,23.30
2022-10-18T12:32:34.564Z,23.23
2022-10-18T12:35:11.781Z,23.07
2022-10-18T12:38:14.335Z,23.36
2022-10-18T12:40:46.804Z,23.22
2022-10-18T12:43:23.608Z,23.01
2022-10-18T12:46:01.710Z,23.04
2022-10-18T12:48:42.609Z,22.92
2022-10-18T12:51:16.792Z,22.54
2022-10-18T12:53:48.762Z,22.60
2022-10-18T12:56:28.102Z,22.43
2022-10-18T12:59:16.992Z,22.35
2022-10-18T13:01:53.417Z,22.35
2022-10-18T13:04:38.975Z,22.23
2022-10-18T13:07:20.144Z,22.21
2022-10-18T13:10:12.841Z,22.12
2022-10-18T13:12:49.622Z,22.10
2022-10-18T13:15:47.189Z,22.17
2022-10-18T13:18:23.468Z,22.13
2022-10-18T13:21:30.870Z,22.04
2022-10-18T13:24:22.409Z,21.94
2022-10-18T13:27:37.019Z,22.00
2022-10-18T13:30:27.686Z,21.94
2022-10-18T13:33:19.552Z,21.88
2022-10-18T13:36:23.424Z,21.78
2022-10-18T13:38:55.671Z,21.69
2022-10-18T13:41:34.568Z,21.55
2022-10-18T13:44:37.564Z,21.46
2022-10-18T13:47:05.003Z,21.40
2022-10-18T13:49:59.994Z,21.37
2022-10-18T13:53:24.599Z,21.30
2022-10-18T13:56:24.647Z,21.29
2022-10-18T13:59:43.780Z,21.27
2022-10-18T14:02:49.866Z,21.22
2022-10-18T14:05:56.926Z,21.21
2022-10-18T14:08:48.895Z,21.13
2022-10-18T14:11:33.627Z,21.04
2022-10-18T14:14:38.192Z,20.98
2022-10-18T14:17:16.835Z,20.92
2022-10-18T14:19:54.458Z,20.85
2022-10-18T14:22:41.367Z,20.79
2022-10-18T14:25:35.835Z,20.72
2022-10-18T14:28:12.601Z,20.68
2022-10-18T14:31:07.193Z,20.61
2022-10-18T14:33:48.106Z,20.55
2022-10-18T14:36:21.861Z,20.46
2022-10-18T14:38:59.587Z,20.37
2022-10-18T14:41:36.137Z,20.35
2022-10-18T14:44:15.094Z,20.26
2022-10-18T14:47:12.113Z,20.17
2022-10-18T14:49:44.882Z,20.06
2022-10-18T14:52:35.456Z,19.93
2022-10-18T14:55:03.933Z,19.83
2022-10-18T14:57:34.916Z,19.77
2022-10-18T15:00:09.314Z,19.52
2022-10-18T15:02:38.982Z,19.34
2022-10-18T15:05:21.523Z,19.32
2022-10-18T15:07:52.145Z,19.23
2022-10-18T15:10:28.988Z,19.10
2022-10-18T15:13:11.188Z,18.98
2022-10-18T15:15:40.100Z,18.93
2022-10-18T15:18:19.194Z,18.79
2022-10-18T15:21:26.820Z,18.61
2022-10-18T15:23:57.614Z,18.43
2022-10-18T15:26:29.929Z,18.41
2022-10-18T15:29:01.532Z,18.35
2022-10-18T15:31:35.745Z,18.17
2022-10-18T15:34:26.823Z,17.99
2022-10-18T15:36:57.056Z,17.90
2022-10-18T15:39:33.038Z,17.84
2022-10-18T15:42:02.763Z,17.72
2022-10-18T15:44:51.248Z,17.70
2022-10-18T15:47:21.690Z,17.78
2022-10-18T15:49:58.574Z,17.67
2022-10-18T15:52:43.407Z,17.53
2022-10-18T15:55:22.996Z,17.26
2022-10-18T15:57:50.549Z,16.96
2022-10-18T16:00:20.715Z,16.52
2022-10-18T16:02:48.254Z,16.31
2022-10-18T16:05:20.855Z,16.03
2022-10-18T16:07:54.816Z,15.93
2022-10-18T16:10:22.263Z,16.01
2022-10-18T16:12:49.722Z,16.04
2022-10-18T16:15:17.383Z,16.08
2022-10-18T16:17:44.998Z,16.01
2022-10-18T16:20:24.682Z,15.99
2022-10-18T16:22:52.124Z,15.99
2022-10-18T16:25:19.599Z,15.95
2022-10-18T16:27:47.139Z,15.91
2022-10-18T16:30:19.917Z,15.95
2022-10-18T16:32:48.881Z,15.94
2022-10-18T16:35:16.396Z,15.95
2022-10-18T16:37:43.923Z,15.81
2022-10-18T16:40:24.631Z,15.73
2022-10-18T16:42:52.130Z,15.62
2022-10-18T16:45:19.687Z,15.63
2022-10-18T16:47:47.252Z,15.43
2022-10-18T16:50:19.113Z,15.26
2022-10-18T16:52:46.541Z,15.03
2022-10-18T16:55:21.394Z,14.90
2022-10-18T16:57:50.285Z,14.89
2022-10-18T17:00:22.409Z,14.80
2022-10-18T17:02:50.314Z,14.70
2022-10-18T17:05:19.645Z,14.53
2022-10-18T17:07:47.688Z,14.51
2022-10-18T17:10:20.692Z,14.45
2022-10-18T17:12:48.123Z,14.44
2022-10-18T17:15:15.536Z,14.54
2022-10-18T17:17:43.348Z,14.63
2022-10-18T17:20:24.721Z,14.58
2022-10-18T17:22:53.327Z,14.50
2022-10-18T17:25:21.157Z,14.43
2022-10-18T17:27:48.719Z,14.36
2022-10-18T17:30:17.916Z,14.26
2022-10-18T17:32:45.470Z,14.13
2022-10-18T17:35:13.442Z,14.08
2022-10-18T17:37:44.045Z,13.97
2022-10-18T17:40:13.513Z,13.88
2022-10-18T17:42:41.159Z,13.83
2022-10-18T17:45:09.777Z,13.76
2022-10-18T17:47:37.220Z,13.72
2022-10-18T17:50:05.123Z,13.63
2022-10-18T17:52:32.629Z,13.58
2022-10-18T17:55:00.079Z,13.44
2022-10-18T17:57:27.542Z,13.35
2022-10-18T17:59:56.222Z,13.24
2022-10-18T18:02:23.675Z,13.19
2022-10-18T18:04:51.134Z,13.12
2022-10-18T18:07:18.543Z,13.05
2022-10-18T18:09:46.040Z,13.01
2022-10-18T18:12:13.500Z,13.05
2022-10-18T18:14:40.931Z,13.07
2022-10-18T18:17:08.955Z,12.99
2022-10-18T18:19:36.598Z,12.93
2022-10-18T18:22:05.231Z,12.90
2022-10-18T18:24:32.775Z,12.85
2022-10-18T18:27:00.253Z,12.80
2022-10-18T18:29:27.991Z,12.66
2022-10-18T18:31:55.555Z,12.63
2022-10-18T18:34:23.200Z,12.61
2022-10-18T18:36:51.913Z,12.54
2022-10-18T18:39:29.489Z,12.48
2022-10-18T18:41:56.958Z,12.36
2022-10-18T18:44:25.110Z,12.24
2022-10-18T18:46:52.635Z,12.23
2022-10-18T18:49:20.091Z,12.18
2022-10-18T18:51:47.879Z,12.17
2022-10-18T18:54:15.935Z,12.14
2022-10-18T18:56:43.706Z,12.09
2022-10-18T18:59:15.535Z,12.03
2022-10-18T19:01:43.901Z,11.96
2022-10-18T19:04:11.862Z,11.89
2022-10-18T19:06:45.592Z,11.87
2022-10-18T19:09:21.832Z,11.83
2022-10-18T19:11:55.494Z,11.89
2022-10-18T19:14:25.295Z,11.87
2022-10-18T19:16:57.493Z,11.81
2022-10-18T19:19:28.872Z,11.79
2022-10-18T19:21:59.777Z,11.78
2022-10-18T19:24:32.841Z,11.68
2022-10-18T19:27:05.956Z,11.64
2022-10-18T19:29:37.188Z,11.57
2022-10-18T19:32:12.203Z,11.55
2022-10-18T19:34:40.153Z,11.48
2022-10-18T19:37:09.454Z,11.35
2022-10-18T19:39:37.385Z,11.31
2022-10-18T19:42:14.691Z,11.25
2022-10-18T19:44:44.850Z,11.15
2022-10-18T19:47:14.586Z,11.11
2022-10-18T19:49:43.004Z,11.06
2022-10-18T19:52:12.279Z,10.99
2022-10-18T19:54:39.817Z,10.99
2022-10-18T19:57:07.584Z,10.93
2022-10-18T19:59:36.015Z,10.86
2022-10-18T20:02:04.767Z,10.82
2022-10-18T20:04:34.704Z,10.79
2022-10-18T20:07:02.847Z,10.85
2022-10-18T20:09:30.606Z,10.84
2022-10-18T20:11:58.051Z,10.80
2022-10-18T20:14:25.869Z,10.73
2022-10-18T20:16:53.306Z,10.66
2022-10-18T20:19:20.829Z,10.62
2022-10-18T20:21:48.279Z,10.61
2022-10-18T20:24:15.750Z,10.56
2022-10-18T20:26:43.788Z,10.59
2022-10-18T20:29:11.476Z,10.58
2022-10-18T20:31:39.430Z,10.60
2022-10-18T20:34:11.587Z,10.62
2022-10-18T20:36:39.785Z,10.51
2022-10-18T20:39:07.826Z,10.49
2022-10-18T20:41:40.849Z,10.49
2022-10-18T20:44:13.990Z,10.48
2022-10-18T20:46:42.600Z,10.44
2022-10-18T20:49:14.819Z,10.43
2022-10-18T20:51:42.964Z,10.40
2022-10-18T20:54:11.095Z,10.42
2022-10-18T20:56:39.434Z,10.43
2022-10-18T20:59:09.894Z,10.40
2022-10-18T21:01:39.301Z,10.35
2022-10-18T21:04:09.706Z,10.37
2022-10-18T21:06:42.475Z,10.37
2022-10-18T21:09:20.219Z,10.38
2022-10-18T21:11:51.156Z,10.34
2022-10-18T21:14:22.419Z,10.26
2022-10-18T21:16:52.166Z,10.22
2022-10-18T21:19:23.895Z,10.22
2022-10-18T21:21:56.600Z,10.22
2022-10-18T21:24:26.834Z,10.16
2022-10-18T21:26:54.850Z,10.11
2022-10-18T21:29:26.993Z,10.10
2022-10-18T21:31:59.451Z,10.03
2022-10-18T21:34:27.119Z,10.01
2022-10-18T21:36:54.583Z,10.00
2022-10-18T21:41:56.474Z,9.92
2022-10-18T21:44:24.152Z,9.88
2022-10-18T21:46:51.816Z,9.87
2022-10-18T21:49:19.549Z,9.81
2022-10-18T21:51:47.107Z,9.74
2022-10-18T21:54:16.368Z,9.68
2022-10-18T21:56:44.246Z,9.58
2022-10-18T21:59:14.794Z,9.51
2022-10-18T22:01:44.170Z,9.43
2022-10-18T22:04:24.052Z,9.41
2022-10-18T22:06:52.356Z,9.36
2022-10-18T22:09:21.244Z,9.45
2022-10-18T22:11:52.754Z,9.46
2022-10-18T22:14:21.154Z,9.46
2022-10-18T22:16:49.359Z,9.45
2022-10-18T22:19:16.896Z,9.43
2022-10-18T22:21:44.342Z,9.43
2022-10-18T22:24:11.809Z,9.41
2022-10-18T22:26:41.960Z,9.44
2022-10-18T22:29:20.258Z,9.33
2022-10-18T22:31:50.646Z,9.20
2022-10-18T22:34:22.220Z,9.17
2022-10-18T22:36:50.558Z,9.11
2022-10-18T22:39:18.074Z,9.03
2022-10-18T22:41:46.495Z,9.02
2022-10-18T22:44:15.068Z,8.96
2022-10-18T22:46:42.867Z,8.93
2022-10-18T22:49:11.263Z,8.91
2022-10-18T22:51:38.771Z,8.89
2022-10-18T22:54:06.443Z,8.89
2022-10-18T22:56:33.899Z,8.90
2022-10-18T22:59:01.382Z,8.89
2022-10-18T23:01:28.832Z,8.87
2022-10-18T23:03:59.917Z,8.86
2022-10-18T23:06:30.173Z,8.76
2022-10-18T23:09:00.997Z,8.72
2022-10-18T23:11:29.307Z,8.77
2022-10-18T23:13:56.795Z,8.83
2022-10-18T23:16:24.431Z,8.81
2022-10-18T23:18:55.308Z,8.74
2022-10-18T23:21:25.571Z,8.66
2022-10-18T23:23:53.987Z,8.55
2022-10-18T23:26:25.455Z,8.37
2022-10-18T23:28:54.559Z,8.28
2022-10-18T23:31:29.200Z,8.19
2022-10-18T23:34:00.739Z,8.02
2022-10-18T23:36:29.288Z,7.95
2022-10-18T23:38:56.690Z,7.92
2022-10-18T23:41:25.508Z,7.96
2022-10-18T23:43:53.670Z,8.06
2022-10-18T23:46:21.471Z,8.09
2022-10-18T23:48:49.821Z,8.22
2022-10-18T23:51:18.275Z,8.26
2022-10-18T23:53:45.683Z,8.27
2022-10-18T23:56:16.386Z,8.42
2022-10-18T23:58:45.379Z,8.49
